Time;durP1;ratioP1;P1;durP2;ratioP2;P2;SDS_P1;SDS_P2;PMS_P1;PMS_P2;Temp;Humidity;BMP_temperature;BMP_pressure;BME280_temperature;BME280_humidity;BME280_pressure;Samples;Min_cycle;Max_cycle;Signal;HPM_P1;HPM_P2
2023/04/13 00:02:04;;;;;;;2.20;1.00;;;;;;;4.99;100.00;99299.38;4978421;28;20073;-72
2023/04/13 00:04:30;;;;;;;2.75;0.88;;;;;;;4.96;100.00;99290.72;4981518;28;20108;-71
2023/04/13 00:06:57;;;;;;;1.95;0.82;;;;;;;4.91;100.00;99291.44;4982464;28;20148;-71
2023/04/13 00:09:24;;;;;;;2.70;1.10;;;;;;;4.97;100.00;99295.88;4984304;28;20394;-72
2023/04/13 00:11:50;;;;;;;2.30;0.57;;;;;;;4.94;100.00;99295.81;4979529;28;20038;-72
2023/04/13 00:14:17;;;;;;;2.97;1.02;;;;;;;4.96;100.00;99277.88;4969260;28;20050;-72
2023/04/13 00:16:45;;;;;;;3.90;0.80;;;;;;;4.97;100.00;99277.91;4969848;28;20033;-71
2023/04/13 00:19:11;;;;;;;1.80;0.75;;;;;;;4.98;100.00;99282.25;4969124;28;20555;-71
2023/04/13 00:21:40;;;;;;;4.63;1.00;;;;;;;5.05;100.00;99273.88;4969172;28;20122;-71
2023/04/13 00:24:06;;;;;;;1.80;0.75;;;;;;;5.05;100.00;99268.72;4969310;28;20027;-72
2023/04/13 00:26:32;;;;;;;3.75;0.80;;;;;;;5.14;100.00;99282.69;4969639;28;20027;-71
2023/04/13 00:28:57;;;;;;;2.47;0.70;;;;;;;5.19;100.00;99269.97;4970701;28;20041;-72
2023/04/13 00:31:22;;;;;;;6.13;1.08;;;;;;;5.26;100.00;99277.91;4968936;28;20221;-72
2023/04/13 00:33:47;;;;;;;3.05;0.82;;;;;;;5.31;100.00;99275.44;4970398;28;20046;-72
2023/04/13 00:36:13;;;;;;;2.60;0.70;;;;;;;5.36;100.00;99279.00;4969533;28;20034;-72
2023/04/13 00:38:38;;;;;;;3.35;0.98;;;;;;;5.38;100.00;99269.66;4970467;28;20032;-72
2023/04/13 00:41:03;;;;;;;2.65;1.00;;;;;;;5.38;100.00;99274.78;4969464;28;20081;-72
2023/04/13 00:43:29;;;;;;;3.78;1.30;;;;;;;5.37;100.00;99282.47;4970226;28;20044;-71
2023/04/13 00:45:54;;;;;;;4.82;1.38;;;;;;;5.32;100.00;99296.88;4969797;28;20406;-71
2023/04/13 00:48:20;;;;;;;3.60;0.98;;;;;;;5.29;100.00;99285.69;4970850;28;20093;-72
2023/04/13 00:50:45;;;;;;;1.98;1.00;;;;;;;5.27;100.00;99295.03;4970338;28;20222;-72
2023/04/13 00:53:12;;;;;;;2.95;1.00;;;;;;;5.25;100.00;99276.13;4969125;28;20049;-71
2023/04/13 00:55:40;;;;;;;3.38;1.20;;;;;;;5.26;100.00;99288.19;4969945;28;20026;-72
2023/04/13 00:58:06;;;;;;;4.22;1.23;;;;;;;5.23;100.00;99284.66;4969851;28;20110;-72
2023/04/13 01:00:32;;;;;;;3.97;0.98;;;;;;;5.24;100.00;99282.13;4969829;28;20472;-72
2023/04/13 01:03:00;;;;;;;2.08;0.63;;;;;;;5.24;100.00;99279.53;4970808;28;20022;-71
2023/04/13 01:05:32;;;;;;;3.75;0.98;;;;;;;5.27;100.00;99289.06;4968317;28;20034;-72
2023/04/13 01:08:16;;;;;;;2.95;0.70;;;;;;;5.27;100.00;99278.78;4971537;28;20070;-72
2023/04/13 01:10:53;;;;;;;3.20;1.10;;;;;;;5.29;100.00;99272.84;4971243;28;20023;-72
2023/04/13 01:13:30;;;;;;;4.60;1.27;;;;;;;5.33;100.00;99270.34;4959664;28;20034;-71
2023/04/13 01:16:04;;;;;;;6.55;0.90;;;;;;;5.34;100.00;99267.84;4971500;28;20034;-72
2023/04/13 01:18:33;;;;;;;2.73;0.70;;;;;;;5.36;100.00;99278.16;4968515;28;20206;-72
2023/04/13 01:21:01;;;;;;;3.70;0.80;;;;;;;5.37;100.00;99272.19;4985822;28;20033;-72
2023/04/13 01:23:34;;;;;;;2.55;0.70;;;;;;;5.37;100.00;99283.34;4977087;28;20383;-72
2023/04/13 01:26:07;;;;;;;3.70;1.10;;;;;;;5.39;100.00;99283.38;4968553;28;20378;-71
2023/04/13 01:28:35;;;;;;;2.80;0.80;;;;;;;5.40;100.00;99285.09;4968074;28;20417;-71
2023/04/13 01:31:04;;;;;;;2.45;0.70;;;;;;;5.42;100.00;99283.47;4956057;28;20493;-71
2023/04/13 01:33:32;;;;;;;2.78;0.88;;;;;;;5.45;100.00;99287.81;4968736;28;20030;-72
2023/04/13 01:35:59;;;;;;;1.98;0.80;;;;;;;5.48;100.00;99288.78;4968758;28;20015;-72
2023/04/13 01:38:25;;;;;;;3.85;0.85;;;;;;;5.50;100.00;99292.28;4969154;28;20026;-72
2023/04/13 01:40:50;;;;;;;2.65;0.60;;;;;;;5.52;100.00;99292.31;4969352;28;20038;-72
2023/04/13 01:43:17;;;;;;;2.22;0.68;;;;;;;5.52;100.00;99300.03;4970260;28;20054;-71
2023/04/13 01:45:46;;;;;;;4.30;0.80;;;;;;;5.50;100.00;99302.56;4969145;28;20051;-72
2023/04/13 01:48:34;;;;;;;4.25;0.98;;;;;;;5.50;100.00;99312.84;4969703;28;20031;-72
2023/04/13 01:51:04;;;;;;;5.55;0.77;;;;;;;5.48;100.00;99311.03;4968607;28;20030;-72
2023/04/13 01:53:36;;;;;;;4.63;0.85;;;;;;;5.39;100.00;99312.53;4969270;28;20061;-71
2023/04/13 01:56:06;;;;;;;5.95;1.35;;;;;;;5.40;100.00;99321.09;4968698;28;20019;-72
2023/04/13 01:58:33;;;;;;;4.10;0.82;;;;;;;5.34;100.00;99318.34;4955941;28;20033;-72
2023/04/13 02:00:59;;;;;;;2.53;0.93;;;;;;;5.31;100.00;99326.81;4969084;28;20267;-72
2023/04/13 02:03:25;;;;;;;4.28;0.93;;;;;;;5.31;100.00;99320.84;4968602;28;20093;-72
2023/04/13 02:05:51;;;;;;;4.95;0.95;;;;;;;5.29;100.00;99324.22;4969306;28;20027;-72
2023/04/13 02:08:19;;;;;;;4.95;1.15;;;;;;;5.26;100.00;99320.69;4968919;28;20111;-72
2023/04/13 02:10:45;;;;;;;5.53;1.42;;;;;;;5.26;100.00;99328.38;4969420;28;20144;-72
2023/04/13 02:13:11;;;;;;;4.07;1.08;;;;;;;5.25;100.00;99337.78;4969106;28;20516;-71
2023/04/13 02:15:37;;;;;;;2.85;1.10;;;;;;;5.25;100.00;99342.91;4968208;28;20051;-72
2023/04/13 02:18:06;;;;;;;3.05;0.95;;;;;;;5.28;100.00;99352.44;4970646;28;20113;-71
2023/04/13 02:20:39;;;;;;;3.90;0.88;;;;;;;5.23;100.00;99349.75;4980830;28;20529;-71
2023/04/13 02:23:04;;;;;;;5.80;1.83;;;;;;;5.22;100.00;99344.53;4981648;28;20030;-71
2023/04/13 02:25:29;;;;;;;6.82;1.20;;;;;;;5.21;100.00;99353.06;4975945;28;20027;-72
2023/04/13 02:27:56;;;;;;;3.90;1.15;;;;;;;5.19;100.00;99368.44;4990717;28;20254;-72
2023/04/13 02:30:21;;;;;;;4.13;1.00;;;;;;;5.21;100.00;99360.78;4990387;28;20061;-72
2023/04/13 02:32:49;;;;;;;4.47;1.20;;;;;;;5.20;100.00;99366.75;4990676;28;20479;-72
2023/04/13 02:35:14;;;;;;;2.55;1.10;;;;;;;5.21;100.00;99371.06;4990065;28;20057;-71
2023/04/13 02:37:40;;;;;;;3.33;1.30;;;;;;;5.22;100.00;99370.22;4990386;28;20030;-72
2023/04/13 02:40:08;;;;;;;4.10;1.08;;;;;;;5.23;100.00;99380.56;4988503;28;20475;-72
2023/04/13 02:42:34;;;;;;;2.92;1.33;;;;;;;5.24;100.00;99387.44;4990605;28;20128;-71
2023/04/13 02:45:00;;;;;;;2.40;1.20;;;;;;;5.23;100.00;99382.25;4989963;28;20527;-71
2023/04/13 02:47:26;;;;;;;5.30;1.60;;;;;;;5.25;100.00;99393.44;4989840;28;20058;-72
2023/04/13 02:49:51;;;;;;;4.40;1.30;;;;;;;5.27;100.00;99397.78;4987628;28;20040;-71
2023/04/13 02:52:16;;;;;;;6.50;2.15;;;;;;;5.27;100.00;99396.94;4970994;28;20460;-72
2023/04/13 02:54:42;;;;;;;5.75;2.05;;;;;;;5.29;100.00;99403.84;4985020;28;20109;-72
2023/04/13 02:57:12;;;;;;;6.97;1.60;;;;;;;5.30;100.00;99404.72;4982151;28;20103;-72
2023/04/13 02:59:39;;;;;;;3.40;1.33;;;;;;;5.27;100.00;99402.94;4970797;28;20031;-71
2023/04/13 03:02:04;;;;;;;5.47;2.17;;;;;;;5.28;100.00;99406.38;4971337;28;20026;-72
2023/04/13 03:04:30;;;;;;;5.50;1.40;;;;;;;5.24;100.00;99418.25;4970172;28;20031;-72
2023/04/13 03:06:55;;;;;;;4.75;1.60;;;;;;;5.25;100.00;99419.97;4970593;28;20027;-72
2023/04/13 03:09:22;;;;;;;6.75;1.50;;;;;;;5.27;100.00;99422.63;4971090;28;20511;-72
2023/04/13 03:11:47;;;;;;;2.20;1.23;;;;;;;5.29;100.00;99451.78;4970976;28;20106;-72
2023/04/13 03:14:20;;;;;;;5.40;1.27;;;;;;;5.32;100.00;99435.59;4970865;28;20228;-73
2023/04/13 03:16:48;;;;;;;3.88;1.77;;;;;;;5.32;100.00;99453.59;4970792;28;20133;-72
2023/04/13 03:19:14;;;;;;;4.10;1.70;;;;;;;5.29;100.00;99459.47;4971031;28;20551;-72
2023/04/13 03:21:40;;;;;;;3.38;1.42;;;;;;;5.26;100.00;99452.56;4970808;28;20085;-72
2023/04/13 03:24:06;;;;;;;1.77;0.82;;;;;;;5.25;100.00;99455.94;4970936;28;20026;-72
2023/04/13 03:26:34;;;;;;;1.77;0.80;;;;;;;5.22;100.00;99460.13;4969902;28;20471;-72
2023/04/13 03:29:00;;;;;;;1.75;0.90;;;;;;;5.16;100.00;99460.81;4973908;28;20026;-72
2023/04/13 03:31:25;;;;;;;2.00;1.23;;;;;;;5.09;100.00;99469.16;4982252;28;20091;-71
2023/04/13 03:33:56;;;;;;;2.47;1.48;;;;;;;5.07;100.00;99475.91;4967273;28;20023;-72
2023/04/13 03:36:22;;;;;;;3.97;1.60;;;;;;;5.03;100.00;99470.69;4969968;28;20026;-72
2023/04/13 03:38:47;;;;;;;4.10;1.90;;;;;;;5.02;100.00;99479.19;4982942;28;20399;-72
2023/04/13 03:41:12;;;;;;;2.03;1.83;;;;;;;5.02;100.00;99483.47;4970038;28;20835;-72
2023/04/13 03:43:37;;;;;;;6.10;2.10;;;;;;;4.99;100.00;99486.81;4970137;28;20031;-72
2023/04/13 03:46:03;;;;;;;4.13;2.08;;;;;;;5.00;100.00;99493.69;4969768;28;20110;-71
2023/04/13 03:48:28;;;;;;;5.32;2.78;;;;;;;4.98;100.00;99497.91;4979490;28;20339;-71
2023/04/13 03:50:55;;;;;;;7.85;2.58;;;;;;;4.96;100.00;99498.69;4960022;28;20027;-71
2023/04/13 03:53:20;;;;;;;4.70;2.63;;;;;;;4.97;100.00;99501.28;4969381;28;20023;-72
2023/04/13 03:55:45;;;;;;;5.63;3.72;;;;;;;4.96;100.00;99503.81;4970102;28;20423;-72
2023/04/13 03:58:11;;;;;;;6.15;2.97;;;;;;;4.93;100.00;99504.56;4969464;28;20034;-72
2023/04/13 04:00:36;;;;;;;5.40;3.28;;;;;;;4.96;100.00;99508.94;4970358;28;20468;-72
2023/04/13 04:03:01;;;;;;;4.93;3.47;;;;;;;4.95;100.00;99512.34;4958445;28;20018;-71
2023/04/13 04:05:26;;;;;;;8.02;3.95;;;;;;;4.93;100.00;99513.16;4969801;28;20026;-71
2023/04/13 04:07:52;;;;;;;6.18;4.30;;;;;;;4.94;100.00;99516.59;4970025;28;20019;-71
2023/04/13 04:10:18;;;;;;;7.60;4.78;;;;;;;4.95;100.00;99526.03;4970192;28;20106;-72
2023/04/13 04:12:43;;;;;;;7.28;4.68;;;;;;;4.97;100.00;99524.41;4970786;28;20022;-72
2023/04/13 04:15:09;;;;;;;8.77;4.80;;;;;;;4.97;100.00;99526.97;4970119;28;20519;-71
2023/04/13 04:17:37;;;;;;;7.68;4.30;;;;;;;4.96;100.00;99527.81;4968203;28;20541;-72
2023/04/13 04:20:06;;;;;;;9.60;5.45;;;;;;;4.96;100.00;99540.63;4969265;28;20031;-72
2023/04/13 04:22:33;;;;;;;11.30;5.30;;;;;;;4.95;100.00;99544.00;4964488;28;20113;-72
2023/04/13 04:24:59;;;;;;;7.28;4.82;;;;;;;4.94;100.00;99544.84;4970138;28;20498;-72
2023/04/13 04:27:25;;;;;;;6.60;4.57;;;;;;;4.96;100.00;99550.91;4984954;28;20061;-72
2023/04/13 04:29:51;;;;;;;8.80;4.28;;;;;;;4.93;100.00;99551.66;4988738;28;20038;-71
2023/04/13 04:32:18;;;;;;;11.15;4.18;;;;;;;4.92;100.00;99559.31;4979166;28;20037;-75
2023/04/13 04:34:45;;;;;;;8.35;4.88;;;;;;;4.90;100.00;99561.84;4988362;28;20037;-75
2023/04/13 04:37:12;;;;;;;8.90;4.40;;;;;;;4.90;100.00;99560.94;4983843;28;20018;-75
2023/04/13 04:39:43;;;;;;;7.32;4.22;;;;;;;4.88;100.00;99567.72;4974983;28;20122;-75
2023/04/13 04:42:09;;;;;;;8.70;4.13;;;;;;;4.86;100.00;99579.63;4969371;28;20308;-75
2023/04/13 04:44:36;;;;;;;8.90;4.55;;;;;;;4.83;100.00;99574.38;4966858;28;20057;-75
2023/04/13 04:47:03;;;;;;;5.97;4.13;;;;;;;4.82;100.00;99582.94;4964566;28;20571;-74
2023/04/13 04:49:29;;;;;;;6.25;4.53;;;;;;;4.79;100.00;99592.25;4958387;28;20030;-73
2023/04/13 04:51:56;;;;;;;8.75;4.97;;;;;;;4.79;100.00;99588.81;4972524;28;20081;-73
2023/04/13 04:54:22;;;;;;;13.70;6.25;;;;;;;4.79;100.00;99592.25;4963614;28;20118;-73
2023/04/13 04:56:47;;;;;;;7.22;4.72;;;;;;;4.78;100.00;99598.22;4969147;28;20128;-72
2023/04/13 04:59:13;;;;;;;8.07;4.82;;;;;;;4.76;100.00;99594.72;4972442;28;20569;-72
2023/04/13 05:01:39;;;;;;;8.43;5.38;;;;;;;4.76;100.00;99597.28;4962424;28;20026;-72
2023/04/13 05:04:05;;;;;;;10.55;5.32;;;;;;;4.76;100.00;99597.28;4961760;28;20027;-72
2023/04/13 05:06:32;;;;;;;7.10;5.25;;;;;;;4.76;100.00;99605.00;4964336;28;20030;-73
2023/04/13 05:08:58;;;;;;;11.38;5.18;;;;;;;4.76;100.00;99607.56;4961062;28;20066;-72
2023/04/13 05:11:24;;;;;;;8.40;5.43;;;;;;;4.77;100.00;99605.84;4979826;28;20040;-72
2023/04/13 05:13:50;;;;;;;7.43;5.35;;;;;;;4.78;100.00;99613.63;4969333;28;20406;-73
2023/04/13 05:16:15;;;;;;;8.35;5.50;;;;;;;4.79;100.00;99611.91;4964847;28;20027;-73
2023/04/13 05:18:44;;;;;;;11.60;6.20;;;;;;;4.79;100.00;99610.22;4979946;28;20033;-73
2023/04/13 05:21:13;;;;;;;7.15;5.78;;;;;;;4.84;100.00;99614.66;4974661;28;20032;-73
2023/04/13 05:23:39;;;;;;;9.93;6.38;;;;;;;4.82;100.00;99606.03;4961679;28;20038;-72
2023/04/13 05:26:05;;;;;;;10.10;6.05;;;;;;;4.83;100.00;99612.91;4983539;28;20019;-73
2023/04/13 05:28:30;;;;;;;10.48;6.50;;;;;;;4.83;100.00;99623.16;4968318;28;20461;-74
2023/04/13 05:31:02;;;;;;;11.85;6.20;;;;;;;4.85;100.00;99624.09;4967460;28;20042;-74
2023/04/13 05:33:29;;;;;;;7.85;6.93;;;;;;;4.86;100.00;99625.84;4967111;28;20034;-73
2023/04/13 05:35:55;;;;;;;10.35;5.68;;;;;;;4.93;100.00;99631.25;4967557;28;20080;-73
2023/04/13 05:38:21;;;;;;;5.82;4.72;;;;;;;5.02;100.00;99628.13;4985812;28;20498;-73
2023/04/13 05:40:47;;;;;;;9.10;4.95;;;;;;;5.05;100.00;99635.94;4978052;28;20109;-73
2023/04/13 05:43:13;;;;;;;8.43;4.05;;;;;;;5.12;100.00;99633.59;4986015;28;20479;-73
2023/04/13 05:45:38;;;;;;;7.05;4.03;;;;;;;5.16;100.00;99635.47;4960619;28;20093;-73
2023/04/13 05:48:04;;;;;;;5.35;3.35;;;;;;;5.20;100.00;99652.72;4960811;28;20031;-73
2023/04/13 05:50:29;;;;;;;5.13;2.92;;;;;;;5.18;100.00;99653.50;4968084;28;20030;-72
2023/04/13 05:52:56;;;;;;;8.05;3.30;;;;;;;5.25;100.00;99660.59;4969488;28;20368;-72
2023/04/13 05:55:22;;;;;;;5.85;2.40;;;;;;;5.24;100.00;99653.69;4975107;28;20390;-72
2023/04/13 05:57:48;;;;;;;6.65;3.80;;;;;;;5.29;100.00;99659.84;4976609;28;20054;-72
2023/04/13 06:00:15;;;;;;;4.57;2.70;;;;;;;5.29;100.00;99673.59;4984049;28;20030;-72
2023/04/13 06:02:42;;;;;;;4.80;2.25;;;;;;;5.35;100.00;99672.06;4983823;28;20393;-72
2023/04/13 06:05:07;;;;;;;8.40;2.40;;;;;;;5.39;100.00;99673.91;4988159;28;20383;-74
2023/04/13 06:07:34;;;;;;;6.95;2.22;;;;;;;5.39;100.00;99684.19;4983903;28;20042;-74
2023/04/13 06:10:00;;;;;;;4.10;2.20;;;;;;;5.41;100.00;99687.69;4987567;28;20030;-74
2023/04/13 06:12:26;;;;;;;4.15;1.75;;;;;;;5.39;100.00;99691.91;4983076;28;20022;-70
2023/04/13 06:14:52;;;;;;;6.88;2.20;;;;;;;5.36;100.00;99700.38;4989675;28;20049;-71
2023/04/13 06:17:17;;;;;;;3.95;1.88;;;;;;;5.37;100.00;99712.41;4976290;28;20019;-70
2023/04/13 06:19:42;;;;;;;4.00;2.00;;;;;;;5.35;100.00;99710.59;4987704;28;20027;-71
2023/04/13 06:22:07;;;;;;;5.10;1.90;;;;;;;5.38;100.00;99713.25;4976613;28;20372;-71
2023/04/13 06:24:33;;;;;;;5.03;2.13;;;;;;;5.39;100.00;99710.78;4978892;28;20097;-71
2023/04/13 06:26:58;;;;;;;4.40;2.13;;;;;;;5.40;100.00;99707.38;4975651;28;20027;-71
2023/04/13 06:29:24;;;;;;;4.93;2.47;;;;;;;5.40;100.00;99724.47;4979519;28;20026;-71
2023/04/13 06:31:49;;;;;;;3.88;2.60;;;;;;;5.40;100.00;99717.66;4975164;28;20395;-71
2023/04/13 06:34:14;;;;;;;7.10;2.60;;;;;;;5.44;100.00;99721.19;4979391;28;20058;-69
2023/04/13 06:36:40;;;;;;;2.67;2.17;;;;;;;5.47;100.00;99726.44;4974701;28;20322;-70
2023/04/13 06:39:07;;;;;;;4.18;2.45;;;;;;;5.52;100.00;99732.59;4973128;28;20026;-70
2023/04/13 06:41:32;;;;;;;4.57;2.42;;;;;;;5.52;100.00;99732.59;4983427;28;20498;-70
2023/04/13 06:43:57;;;;;;;2.90;1.83;;;;;;;5.53;100.00;99739.50;4986485;28;20030;-70
2023/04/13 06:46:23;;;;;;;8.38;3.63;;;;;;;5.57;100.00;99745.63;4982415;28;20029;-70
2023/04/13 06:48:48;;;;;;;4.50;2.35;;;;;;;5.59;100.00;99745.69;4975650;28;20039;-71
2023/04/13 06:51:14;;;;;;;5.07;2.80;;;;;;;5.64;100.00;99757.88;4973801;28;20538;-72
2023/04/13 06:53:40;;;;;;;5.45;2.38;;;;;;;5.66;100.00;99755.38;4983415;28;20068;-72
2023/04/13 06:56:05;;;;;;;4.80;2.58;;;;;;;5.67;100.00;99762.25;4976562;28;20094;-73
2023/04/13 06:58:31;;;;;;;6.93;2.88;;;;;;;5.66;100.00;99755.38;4976674;28;20035;-73
2023/04/13 07:00:56;;;;;;;3.47;2.30;;;;;;;5.69;100.00;99765.75;4961396;28;20054;-72
2023/04/13 07:03:22;;;;;;;6.00;2.35;;;;;;;5.69;100.00;99773.47;4962386;28;20475;-72
2023/04/13 07:05:47;;;;;;;5.35;2.65;;;;;;;5.72;100.00;99770.13;4968462;28;20491;-72
2023/04/13 07:08:12;;;;;;;7.82;2.85;;;;;;;5.75;100.00;99781.41;4975806;28;20031;-72
2023/04/13 07:10:39;;;;;;;4.00;2.20;;;;;;;5.79;100.00;99776.34;4964410;28;20301;-72
2023/04/13 07:13:05;;;;;;;4.45;2.67;;;;;;;5.83;100.00;99773.06;4977612;28;20022;-72
2023/04/13 07:15:31;;;;;;;4.70;2.92;;;;;;;5.85;100.00;99781.69;4975444;28;20050;-72
2023/04/13 07:17:56;;;;;;;10.20;3.10;;;;;;;5.88;100.00;99795.53;4968917;28;20035;-73
2023/04/13 07:20:21;;;;;;;7.30;2.45;;;;;;;5.93;100.00;99802.53;4979658;28;20026;-72
2023/04/13 07:22:47;;;;;;;7.82;3.03;;;;;;;5.95;100.00;99801.78;4969812;28;20044;-72
2023/04/13 07:25:12;;;;;;;5.93;2.70;;;;;;;5.99;100.00;99810.47;4966604;28;20038;-72
2023/04/13 07:27:37;;;;;;;6.47;2.80;;;;;;;6.01;100.00;99819.09;4970247;28;20033;-72
2023/04/13 07:30:03;;;;;;;7.05;2.88;;;;;;;6.02;100.00;99808.00;4969079;28;20594;-72
2023/04/13 07:32:28;;;;;;;5.90;2.67;;;;;;;6.05;100.00;99822.66;4965969;28;20046;-72
2023/04/13 07:34:58;;;;;;;8.55;3.47;;;;;;;6.06;100.00;99811.59;4965764;28;20040;-72
2023/04/13 07:37:23;;;;;;;9.48;3.67;;;;;;;6.09;100.00;99824.53;4963085;28;20019;-72
2023/04/13 07:39:49;;;;;;;5.72;3.08;;;;;;;6.12;100.00;99828.09;4957435;28;20031;-72
2023/04/13 07:42:14;;;;;;;5.97;2.88;;;;;;;6.17;100.00;99829.97;4964272;28;20041;-72
2023/04/13 07:44:39;;;;;;;5.97;3.15;;;;;;;6.21;100.00;99842.09;4970926;28;20030;-72
2023/04/13 07:47:05;;;;;;;7.38;3.53;;;;;;;6.26;100.00;99844.84;4963554;28;20027;-72
2023/04/13 07:49:30;;;;;;;9.57;3.22;;;;;;;6.27;100.00;99852.59;4972762;28;20050;-72
2023/04/13 07:51:57;;;;;;;7.40;2.92;;;;;;;6.29;100.00;99852.66;4968639;28;20026;-72
2023/04/13 07:54:22;;;;;;;6.93;2.85;;;;;;;6.34;100.00;99858.81;4971709;28;20527;-72
2023/04/13 07:56:47;;;;;;;6.10;2.50;;;;;;;6.40;100.00;99853.88;4976362;28;20125;-73
2023/04/13 07:59:13;;;;;;;7.13;3.53;;;;;;;6.45;100.00;99861.75;4969658;28;20109;-72
2023/04/13 08:01:39;;;;;;;7.63;3.30;;;;;;;6.53;100.00;99865.44;4972779;28;20442;-73
2023/04/13 08:04:05;;;;;;;9.18;3.28;;;;;;;6.60;100.00;99861.41;4972342;28;20026;-73
2023/04/13 08:06:30;;;;;;;9.43;3.38;;;;;;;6.69;100.00;99865.97;4963906;28;20023;-73
2023/04/13 08:08:56;;;;;;;7.93;3.17;;;;;;;6.79;100.00;99867.13;4986265;28;20024;-73
2023/04/13 08:11:22;;;;;;;6.70;3.45;;;;;;;6.87;100.00;99880.25;4987824;28;20022;-72
2023/04/13 08:13:48;;;;;;;10.32;2.65;;;;;;;6.91;100.00;99882.97;4986766;28;20487;-73
2023/04/13 08:16:14;;;;;;;8.95;2.67;;;;;;;6.97;100.00;99883.16;4983452;28;20030;-73
2023/04/13 08:18:39;;;;;;;10.38;3.13;;;;;;;7.07;100.00;99886.00;4970501;28;20030;-73
2023/04/13 08:21:14;;;;;;;10.93;3.25;;;;;;;7.18;100.00;99891.50;4975275;28;20434;-73
2023/04/13 08:23:40;;;;;;;8.85;2.70;;;;;;;7.28;100.00;99892.66;4984080;28;20026;-73
2023/04/13 08:26:06;;;;;;;8.55;2.92;;;;;;;7.33;100.00;99901.41;4981518;28;20015;-73
2023/04/13 08:28:31;;;;;;;9.55;3.08;;;;;;;7.34;100.00;99900.56;4969750;28;20077;-73
2023/04/13 08:30:57;;;;;;;9.73;3.10;;;;;;;7.40;100.00;99908.50;4968851;28;20050;-73
2023/04/13 08:33:22;;;;;;;10.43;2.72;;;;;;;7.43;100.00;99911.16;4969324;28;20424;-72
2023/04/13 08:35:47;;;;;;;11.88;3.20;;;;;;;7.50;100.00;99913.94;4988457;28;20088;-73
2023/04/13 08:38:13;;;;;;;9.68;2.83;;;;;;;7.55;100.00;99918.41;4971716;28;20036;-73
2023/04/13 08:40:39;;;;;;;3.83;2.33;;;;;;;7.62;100.00;99929.78;4960513;28;20026;-73
2023/04/13 08:43:06;;;;;;;11.10;3.40;;;;;;;7.65;100.00;99934.13;4958111;28;20464;-72
2023/04/13 08:45:31;;;;;;;7.80;2.63;;;;;;;7.69;100.00;99939.44;4963201;28;20023;-73
2023/04/13 08:47:57;;;;;;;10.55;3.20;;;;;;;7.68;100.00;99944.56;4955500;28;20053;-71
2023/04/13 08:50:25;;;;;;;9.60;3.53;;;;;;;7.71;100.00;99943.75;4959518;28;20510;-71
2023/04/13 08:52:52;;;;;;;12.07;3.22;;;;;;;7.76;100.00;99937.03;4962706;28;20023;-71
2023/04/13 08:55:18;;;;;;;7.35;2.65;;;;;;;7.80;100.00;99949.19;4970693;28;20025;-71
2023/04/13 08:57:46;;;;;;;8.90;2.80;;;;;;;7.83;100.00;99964.75;4958340;28;20396;-71
2023/04/13 09:00:16;;;;;;;10.55;2.67;;;;;;;7.86;100.00;99959.66;4962787;28;20037;-71
2023/04/13 09:02:47;;;;;;;9.13;3.38;;;;;;;7.87;100.00;99971.75;4965625;28;20392;-71
2023/04/13 09:05:14;;;;;;;14.48;3.00;;;;;;;7.95;100.00;99968.53;4978211;28;20517;-71
2023/04/13 09:07:44;;;;;;;7.63;1.95;;;;;;;8.00;100.00;99970.41;4964348;28;20053;-71
2023/04/13 09:10:09;;;;;;;10.43;2.67;;;;;;;8.10;100.00;99973.22;4956513;28;20110;-71
2023/04/13 09:12:35;;;;;;;7.57;2.60;;;;;;;8.30;100.00;99976.38;4960455;28;20110;-71
2023/04/13 09:15:03;;;;;;;8.95;2.97;;;;;;;8.60;100.00;99987.53;4959806;28;20057;-71
2023/04/13 09:17:33;;;;;;;9.98;2.25;;;;;;;8.85;100.00;99985.59;4957557;28;20027;-71
2023/04/13 09:20:21;;;;;;;12.68;2.50;;;;;;;9.05;100.00;99992.97;4965380;28;20113;-72
2023/04/13 09:22:47;;;;;;;10.00;3.03;;;;;;;9.16;100.00;100007.00;4959022;28;20027;-72
2023/04/13 09:25:19;;;;;;;8.20;2.38;;;;;;;9.18;100.00;100004.47;4969787;28;20063;-72
2023/04/13 09:27:44;;;;;;;10.75;2.55;;;;;;;9.13;100.00;100006.94;4957104;28;20031;-71
2023/04/13 09:30:11;;;;;;;11.00;2.60;;;;;;;9.10;100.00;100018.06;4961464;28;20038;-70
2023/04/13 09:32:36;;;;;;;7.65;2.35;;;;;;;9.02;100.00;100004.09;4970080;28;20097;-69
2023/04/13 09:35:07;;;;;;;9.35;2.30;;;;;;;8.94;100.00;100023.72;4977211;28;20035;-71
2023/04/13 09:37:33;;;;;;;8.45;2.80;;;;;;;8.88;100.00;100027.00;4971384;28;20027;-70
2023/04/13 09:40:17;;;;;;;9.70;1.75;;;;;;;8.82;100.00;100032.00;4972552;28;20031;-70
2023/04/13 09:42:56;;;;;;;6.32;2.30;;;;;;;8.79;100.00;100043.13;4979718;28;20027;-70
2023/04/13 09:45:22;;;;;;;7.13;1.92;;;;;;;8.76;100.00;100045.66;4979207;28;20490;-71
2023/04/13 09:47:48;;;;;;;6.53;2.08;;;;;;;8.69;100.00;100048.91;4972144;28;20101;-71
2023/04/13 09:50:17;;;;;;;9.07;2.33;;;;;;;8.60;100.00;100065.03;4980658;28;20445;-71
2023/04/13 09:52:43;;;;;;;8.30;2.65;;;;;;;8.55;100.00;100058.78;4971274;28;20412;-71
2023/04/13 09:55:15;;;;;;;6.25;1.75;;;;;;;8.51;100.00;100068.16;4975258;28;20043;-71
2023/04/13 09:57:41;;;;;;;6.35;1.85;;;;;;;8.40;100.00;100071.31;4956803;28;20400;-71
2023/04/13 10:00:13;;;;;;;12.27;3.42;;;;;;;8.40;100.00;100081.66;4974147;28;20106;-71
2023/04/13 10:02:40;;;;;;;7.88;1.85;;;;;;;8.45;100.00;100079.22;4957220;28;20484;-71
2023/04/13 10:05:07;;;;;;;8.07;2.40;;;;;;;8.40;100.00;100086.81;4972273;28;20108;-71
2023/04/13 10:07:35;;;;;;;6.35;1.83;;;;;;;8.32;100.00;100093.47;4972732;28;20062;-71
2023/04/13 10:10:01;;;;;;;9.93;2.67;;;;;;;8.29;100.00;100083.06;4979041;28;20033;-70
2023/04/13 10:12:29;;;;;;;10.48;2.80;;;;;;;8.20;100.00;100098.28;4968538;28;20109;-71
2023/04/13 10:15:03;;;;;;;10.63;3.50;;;;;;;8.13;100.00;100097.22;4954844;28;20473;-71
2023/04/13 10:17:37;;;;;;;10.18;3.38;;;;;;;8.19;100.00;100109.41;4959617;28;20034;-70
2023/04/13 10:20:12;;;;;;;7.97;3.15;;;;;;;8.25;100.00;100112.19;4979567;28;20371;-71
2023/04/13 10:22:41;;;;;;;11.60;3.20;;;;;;;8.36;100.00;100113.41;4959182;28;20062;-71
2023/04/13 10:25:12;;;;;;;8.95;3.45;;;;;;;8.46;100.00;100117.09;4960931;28;20030;-71
2023/04/13 10:27:38;;;;;;;10.48;3.60;;;;;;;8.57;100.00;100114.88;4978069;28;20061;-71
2023/04/13 10:30:17;;;;;;;11.23;3.17;;;;;;;8.73;100.00;100120.47;4981671;28;20075;-71
2023/04/13 10:32:42;;;;;;;7.63;2.92;;;;;;;8.85;100.00;100117.38;4976854;28;20407;-71
2023/04/13 10:35:10;;;;;;;9.60;3.72;;;;;;;8.91;100.00;100121.78;4983263;28;20033;-70
2023/04/13 10:37:38;;;;;;;8.82;3.70;;;;;;;8.92;100.00;100128.72;4975084;28;20031;-71
2023/04/13 10:40:06;;;;;;;8.55;3.17;;;;;;;8.87;100.00;100128.59;4983654;28;20480;-71
2023/04/13 10:42:38;;;;;;;10.70;3.60;;;;;;;8.80;100.00;100137.00;4976479;28;20431;-72
2023/04/13 10:45:15;;;;;;;11.32;3.70;;;;;;;8.85;100.00;100149.22;4980760;28;20034;-72
2023/04/13 10:47:42;;;;;;;10.85;3.55;;;;;;;8.95;100.00;100149.47;4970358;28;20034;-71
2023/04/13 10:50:18;;;;;;;10.48;3.53;;;;;;;9.09;100.00;100145.56;4985644;28;20041;-70
2023/04/13 10:53:23;;;;;;;8.98;3.45;;;;;;;9.27;100.00;100149.47;4980985;28;20046;-70
2023/04/13 10:55:48;;;;;;;11.55;3.95;;;;;;;9.41;100.00;100157.59;4973060;28;20038;-69
2023/04/13 10:58:18;;;;;;;8.15;3.13;;;;;;;9.52;100.00;100160.44;4982769;28;20467;-70
2023/04/13 11:00:45;;;;;;;9.10;3.40;;;;;;;9.60;100.00;100158.06;4980118;28;20430;-70
2023/04/13 11:03:11;;;;;;;11.65;3.63;;;;;;;9.58;100.00;100160.63;4983324;28;20120;-70
2023/04/13 11:05:37;;;;;;;8.68;3.17;;;;;;;9.55;100.00;100170.03;4981600;28;20387;-70
2023/04/13 11:08:03;;;;;;;9.98;3.35;;;;;;;9.49;100.00;100175.91;4981777;28;20022;-69
2023/04/13 11:10:30;;;;;;;11.10;3.67;;;;;;;9.39;100.00;100186.84;4981242;28;20095;-69
2023/04/13 11:12:56;;;;;;;11.18;3.25;;;;;;;9.37;100.00;100179.91;4979820;28;20041;-69
2023/04/13 11:15:24;;;;;;;12.65;3.30;;;;;;;9.39;100.00;100184.25;4979974;28;20494;-68
2023/04/13 11:17:55;;;;;;;6.80;2.65;;;;;;;9.39;100.00;100177.34;4978159;28;20030;-68
2023/04/13 11:20:35;;;;;;;6.68;2.15;;;;;;;9.40;100.00;100183.41;4982202;28;20034;-68
2023/04/13 11:23:05;;;;;;;9.60;2.70;;;;;;;9.36;100.00;100191.09;4982801;28;20027;-68
2023/04/13 11:25:31;;;;;;;11.88;3.20;;;;;;;9.37;100.00;100185.06;4983005;28;20448;-68
2023/04/13 11:27:58;;;;;;;8.65;2.13;;;;;;;9.37;100.00;100191.97;4975765;28;20023;-68
2023/04/13 11:30:24;;;;;;;8.50;2.10;;;;;;;9.36;100.00;100191.09;4985972;28;20018;-68
2023/04/13 11:32:52;;;;;;;6.55;1.90;;;;;;;9.32;100.00;100184.09;4974973;28;20484;-68